Time;durP1;ratioP1;P1;durP2;ratioP2;P2;SDS_P1;SDS_P2;PMS_P1;PMS_P2;Temp;Humidity;BMP_temperature;BMP_pressure;BME280_temperature;BME280_humidity;BME280_pressure;Samples;Min_cycle;Max_cycle;Signal;HPM_P1;HPM_P2
2022/05/23 00:00:25;;;;;;;4.10;2.50;;;;;;;21.38;39.43;98796.47;5051952;28;20078;-86
2022/05/23 00:02:51;;;;;;;5.22;2.30;;;;;;;21.23;39.72;98788.38;5052055;28;20020;-85
2022/05/23 00:05:17;;;;;;;5.18;1.92;;;;;;;21.78;39.66;98873.63;5050527;28;20536;-85
2022/05/23 00:07:46;;;;;;;3.58;2.42;;;;;;;21.79;39.98;98882.50;5051865;28;20028;-86
2022/05/23 00:10:14;;;;;;;3.85;1.92;;;;;;;21.89;40.16;98902.13;5051706;28;20112;-85
2022/05/23 00:12:40;;;;;;;3.45;2.10;;;;;;;20.97;40.31;98765.22;5050412;28;20540;-85
2022/05/23 00:15:09;;;;;;;3.22;2.25;;;;;;;21.45;40.12;98844.53;5066972;28;20029;-85
2022/05/23 00:17:35;;;;;;;4.07;3.25;;;;;;;21.48;40.49;98884.28;5051502;28;20032;-86
2022/05/23 00:20:06;;;;;;;3.30;2.30;;;;;;;21.66;40.90;98912.56;5050283;28;20029;-86
2022/05/23 00:22:32;;;;;;;3.13;2.15;;;;;;;20.97;41.10;98814.31;5051472;28;20032;-86
2022/05/23 00:24:58;;;;;;;3.95;2.50;;;;;;;20.76;41.26;98783.09;5051893;28;20028;-85
2022/05/23 00:27:23;;;;;;;3.53;2.50;;;;;;;20.78;41.63;98791.69;5050287;28;20543;-86
2022/05/23 00:29:52;;;;;;;3.88;2.40;;;;;;;21.53;41.56;98911.97;5050370;28;20037;-85
2022/05/23 00:35:18;;;;;;;3.55;2.63;;;;;;;21.28;42.06;98879.69;5051928;28;20039;-85
2022/05/23 00:37:44;;;;;;;;;;;;;;;21.28;42.44;98908.41;5051658;28;20078;-86
2022/05/23 00:40:23;;;;;;;4.85;2.22;;;;;;;20.72;42.76;98815.00;5066857;28;20381;-85
2022/05/23 00:45:34;;;;;;;3.42;2.50;;;;;;;21.40;42.58;98909.00;5051460;28;20040;-85
2022/05/23 00:48:00;;;;;;;4.25;2.95;;;;;;;21.44;42.63;98918.13;5067014;28;20033;-86
2022/05/23 00:50:25;;;;;;;4.45;3.03;;;;;;;20.77;42.54;98801.59;5051480;28;20482;-85
2022/05/23 00:52:54;;;;;;;4.35;3.20;;;;;;;21.34;42.83;98889.38;5051241;28;20476;-85
2022/05/23 00:55:24;;;;;;;3.92;2.50;;;;;;;20.89;42.76;98818.31;5066787;28;20036;-85
2022/05/23 00:57:55;;;;;;;4.18;2.65;;;;;;;21.19;42.65;98859.75;5050004;28;20032;-85
2022/05/23 01:00:21;;;;;;;3.57;2.30;;;;;;;20.94;42.60;98812.16;5051231;28;20099;-85
2022/05/23 01:02:52;;;;;;;4.72;2.70;;;;;;;21.06;42.73;98831.53;5051520;28;20346;-85
2022/05/23 01:05:18;;;;;;;7.35;2.95;;;;;;;21.19;42.73;98857.06;5066280;28;20025;-85
2022/05/23 01:07:43;;;;;;;5.93;2.63;;;;;;;21.05;42.97;98821.06;5050872;28;20075;-85
2022/05/23 01:10:10;;;;;;;2.75;2.47;;;;;;;21.30;42.99;98868.69;5049447;28;20028;-85
2022/05/23 01:12:36;;;;;;;4.95;3.05;;;;;;;20.94;43.26;98823.69;5066339;28;20031;-85
2022/05/23 01:15:03;;;;;;;3.58;2.47;;;;;;;20.69;43.17;98783.34;5051308;28;20051;-85
2022/05/23 01:17:29;;;;;;;4.60;2.97;;;;;;;21.36;43.36;98903.34;5049537;28;20108;-86
2022/05/23 01:19:55;;;;;;;4.18;2.67;;;;;;;20.90;43.81;98833.34;5050981;28;20025;-85
2022/05/23 01:22:38;;;;;;;3.35;2.72;;;;;;;21.07;44.14;98856.50;5049726;28;20456;-85
2022/05/23 01:25:19;;;;;;;3.50;2.78;;;;;;;21.14;43.87;98883.91;5049635;28;20021;-86
2022/05/23 01:27:46;;;;;;;2.90;2.60;;;;;;;20.59;43.91;98813.59;5050989;28;20027;-85
2022/05/23 01:30:12;;;;;;;3.95;2.88;;;;;;;20.47;43.86;98790.75;5066344;28;20028;-85
2022/05/23 01:32:38;;;;;;;6.15;3.33;;;;;;;20.92;44.16;98862.59;5050871;28;20025;-85
2022/05/23 01:35:08;;;;;;;4.68;3.08;;;;;;;20.21;44.16;98746.88;5054035;28;20147;-85
2022/05/23 01:37:34;;;;;;;4.97;2.72;;;;;;;20.28;44.09;98763.53;5054742;28;20036;-85
2022/05/23 01:39:59;;;;;;;8.70;3.17;;;;;;;20.83;44.05;98840.84;5054728;28;20025;-86
2022/05/23 01:42:24;;;;;;;3.50;3.10;;;;;;;21.02;44.08;98864.53;5054707;28;20013;-85
2022/05/23 01:44:50;;;;;;;3.53;3.15;;;;;;;21.02;44.00;98870.69;5053142;28;20025;-85
2022/05/23 01:47:18;;;;;;;4.13;3.15;;;;;;;21.10;43.89;98882.81;5054315;28;20005;-85
2022/05/23 01:49:43;;;;;;;3.70;2.90;;;;;;;21.29;43.96;98889.34;5054276;28;20508;-85
2022/05/23 01:52:10;;;;;;;3.65;2.78;;;;;;;21.29;43.88;98889.34;5052864;28;20053;-85
2022/05/23 01:54:37;;;;;;;4.22;3.10;;;;;;;21.29;44.19;98893.91;5053109;28;20033;-86
2022/05/23 01:57:03;;;;;;;6.10;3.47;;;;;;;21.18;44.07;98882.31;5054279;28;20082;-85
2022/05/23 02:02:14;;;;;;;5.90;3.13;;;;;;;21.23;43.81;98891.22;5054490;28;20512;-86
2022/05/23 02:04:39;;;;;;;4.78;3.08;;;;;;;20.49;44.00;98776.00;5052782;28;20206;-85
2022/05/23 02:07:05;;;;;;;5.30;3.40;;;;;;;21.24;43.89;98886.66;5052794;28;20020;-85
2022/05/23 02:09:31;;;;;;;4.47;3.47;;;;;;;21.25;43.77;98889.06;5052848;28;20029;-85
2022/05/23 02:11:57;;;;;;;5.30;3.08;;;;;;;21.15;43.72;98878.25;5052687;28;20108;-86
2022/05/23 02:14:22;;;;;;;4.45;3.17;;;;;;;20.65;43.48;98787.59;5069476;28;20159;-85
2022/05/23 02:16:48;;;;;;;5.63;3.20;;;;;;;21.06;43.51;98854.88;5069297;28;20409;-85
2022/05/23 02:19:13;;;;;;;6.68;4.05;;;;;;;20.73;43.33;98787.09;5052609;28;20037;-85
2022/05/23 02:21:39;;;;;;;3.47;3.10;;;;;;;20.74;43.36;98796.75;5054010;28;20021;-85
2022/05/23 02:24:05;;;;;;;5.50;3.17;;;;;;;21.07;43.29;98841.19;5054580;28;20024;-85
2022/05/23 02:26:31;;;;;;;4.95;3.08;;;;;;;20.96;43.36;98814.59;5069428;28;20107;-85
2022/05/23 02:28:57;;;;;;;4.22;3.20;;;;;;;21.26;43.43;98873.78;5069600;28;20032;-86
2022/05/23 02:31:23;;;;;;;4.90;3.10;;;;;;;20.61;43.21;98770.41;5054084;28;20573;-86
2022/05/23 02:33:49;;;;;;;4.72;3.17;;;;;;;20.49;43.43;98765.28;5069447;28;20048;-86
2022/05/23 02:36:14;;;;;;;4.18;3.50;;;;;;;21.14;43.43;98859.72;5069182;28;20035;-86
2022/05/23 02:38:40;;;;;;;5.18;3.25;;;;;;;20.98;43.78;98841.97;5069019;28;20021;-86
2022/05/23 02:41:05;;;;;;;4.68;3.28;;;;;;;21.09;43.67;98862.41;5068971;28;20024;-85
2022/05/23 02:43:30;;;;;;;3.95;3.38;;;;;;;20.46;43.87;98775.72;5053631;28;20482;-85
2022/05/23 02:45:56;;;;;;;5.70;3.80;;;;;;;20.89;44.17;98857.75;5067548;28;20017;-86
2022/05/23 02:48:22;;;;;;;5.40;3.60;;;;;;;21.19;44.15;98879.34;5068916;28;20038;-86
2022/05/23 02:50:48;;;;;;;6.10;3.75;;;;;;;20.80;44.13;98852.06;5052492;28;20509;-85
2022/05/23 02:53:14;;;;;;;4.15;3.30;;;;;;;20.92;44.35;98871.47;5053728;28;20045;-85
2022/05/23 02:55:39;;;;;;;6.13;3.70;;;;;;;21.07;44.56;98880.66;5053542;28;20466;-85
2022/05/23 02:58:07;;;;;;;5.78;3.53;;;;;;;20.85;44.72;98873.56;5052326;28;20035;-85
2022/05/23 03:00:33;;;;;;;4.97;3.63;;;;;;;20.46;44.77;98806.03;5051828;28;20386;-85
2022/05/23 03:03:02;;;;;;;4.00;3.60;;;;;;;20.68;45.10;98866.75;5053247;28;20024;-85
2022/05/23 03:05:32;;;;;;;4.45;3.65;;;;;;;20.78;45.48;98894.44;5052326;28;20112;-85
2022/05/23 03:07:58;;;;;;;6.18;4.22;;;;;;;20.43;45.64;98845.97;5068803;28;20017;-85
2022/05/23 03:10:24;;;;;;;4.38;3.42;;;;;;;20.21;45.77;98813.88;5068430;28;20421;-85
2022/05/23 03:12:50;;;;;;;5.03;3.50;;;;;;;20.58;45.65;98886.28;5053211;28;20033;-85
2022/05/23 03:15:15;;;;;;;4.63;3.47;;;;;;;20.45;45.67;98862.59;5068784;28;20028;-85
2022/05/23 03:17:41;;;;;;;7.30;3.72;;;;;;;20.16;45.87;98838.78;5053192;28;20021;-85
2022/05/23 03:20:07;;;;;;;6.20;4.47;;;;;;;20.12;45.72;98839.56;5053187;28;20545;-85
2022/05/23 03:28:02;;;;;;;5.00;4.50;;;;;;;19.85;45.87;98781.47;5068033;28;20047;-84
2022/05/23 03:30:28;;;;;;;5.25;4.15;;;;;;;20.54;45.96;98898.59;5071298;28;20017;-84
2022/05/23 03:32:54;;;;;;;5.93;4.72;;;;;;;20.27;46.03;98863.78;5071315;28;20033;-84
2022/05/23 03:35:19;;;;;;;5.97;4.63;;;;;;;20.12;46.21;98848.41;5060004;28;20033;-85
2022/05/23 03:37:45;;;;;;;5.93;4.38;;;;;;;20.35;46.42;98883.94;5067849;28;20501;-85
2022/05/23 03:40:11;;;;;;;6.32;4.30;;;;;;;19.84;46.57;98817.34;5052828;28;20032;-86
2022/05/23 03:42:37;;;;;;;5.38;4.78;;;;;;;19.74;46.44;98795.03;5052481;28;20021;-85
2022/05/23 03:45:03;;;;;;;8.50;5.05;;;;;;;19.91;46.81;98866.16;5067826;28;20086;-85
2022/05/23 03:47:29;;;;;;;5.20;4.72;;;;;;;19.59;46.99;98817.13;5067636;28;20107;-85
2022/05/23 03:49:54;;;;;;;7.47;5.63;;;;;;;19.95;46.99;98858.41;5052274;28;20028;-85
2022/05/23 03:52:20;;;;;;;6.10;5.03;;;;;;;19.56;47.05;98805.06;5052470;28;20049;-85
2022/05/23 03:54:46;;;;;;;5.53;4.93;;;;;;;19.53;46.93;98786.81;5067706;28;20025;-85
2022/05/23 03:57:12;;;;;;;6.10;5.50;;;;;;;19.68;47.02;98804.88;5050684;28;20028;-85
2022/05/23 03:59:37;;;;;;;6.63;5.03;;;;;;;19.78;47.00;98820.25;5051036;28;20486;-85
2022/05/23 04:02:03;;;;;;;4.90;4.40;;;;;;;19.51;47.17;98794.28;5052540;28;20031;-85
2022/05/23 04:04:30;;;;;;;6.60;4.85;;;;;;;20.08;46.92;98870.63;5050984;28;20021;-85
2022/05/23 04:07:00;;;;;;;6.15;4.57;;;;;;;20.42;46.98;98935.50;5051181;28;20402;-85
2022/05/23 04:09:28;;;;;;;5.57;4.75;;;;;;;20.36;46.81;98898.97;5053143;28;20051;-85
2022/05/23 04:11:54;;;;;;;7.47;4.88;;;;;;;19.80;46.73;98828.81;5073854;28;20032;-84
2022/05/23 04:14:19;;;;;;;6.20;4.80;;;;;;;19.90;46.72;98826.22;5069086;28;20028;-83
2022/05/23 04:16:46;;;;;;;6.32;4.65;;;;;;;20.35;46.77;98892.00;5084814;28;20025;-83
2022/05/23 04:19:12;;;;;;;5.63;5.13;;;;;;;19.61;46.26;98766.81;5058222;28;20104;-85
2022/05/23 04:21:42;;;;;;;4.95;4.55;;;;;;;20.71;46.37;98926.06;5051807;28;20039;-85
2022/05/23 04:24:10;;;;;;;7.03;5.13;;;;;;;20.55;46.12;98900.19;5050543;28;20467;-85
2022/05/23 04:26:36;;;;;;;6.90;5.07;;;;;;;20.23;46.05;98858.13;5051538;28;20436;-85
2022/05/23 04:29:02;;;;;;;6.78;4.47;;;;;;;20.82;45.95;98930.44;5051755;28;20055;-85
2022/05/23 04:31:27;;;;;;;5.35;4.40;;;;;;;20.16;45.68;98841.47;5050123;28;20029;-85
2022/05/23 04:36:37;;;;;;;9.02;5.10;;;;;;;20.61;45.82;98889.25;5051590;28;20556;-85
2022/05/23 04:39:02;;;;;;;4.90;4.50;;;;;;;20.68;45.72;98894.38;5050259;28;20021;-85
2022/05/23 04:41:28;;;;;;;7.70;5.00;;;;;;;19.86;45.78;98752.78;5050212;28;20036;-86
2022/05/23 04:43:53;;;;;;;8.07;4.95;;;;;;;20.90;46.07;98926.47;5050235;28;20020;-86
2022/05/23 04:46:19;;;;;;;5.53;4.88;;;;;;;20.87;45.95;98892.09;5051521;28;20506;-86
2022/05/23 04:51:28;;;;;;;5.85;5.35;;;;;;;21.09;46.02;98929.50;5051331;28;20521;-85
2022/05/23 04:53:54;;;;;;;10.27;4.72;;;;;;;20.48;45.92;98844.13;5050157;28;20021;-86
2022/05/23 04:56:24;;;;;;;5.38;4.85;;;;;;;20.89;45.77;98901.50;5053308;28;20028;-85
2022/05/23 04:58:50;;;;;;;5.40;4.72;;;;;;;20.97;45.52;98894.84;5066971;28;20029;-86
2022/05/23 05:01:15;;;;;;;6.35;4.80;;;;;;;20.68;45.38;98830.00;5066752;28;20520;-85
2022/05/23 05:03:41;;;;;;;6.32;4.45;;;;;;;21.00;45.34;98890.81;5051482;28;20092;-85
2022/05/23 05:06:07;;;;;;;6.57;4.78;;;;;;;20.85;45.47;98873.56;5050444;28;20171;-86
2022/05/23 05:08:32;;;;;;;4.90;4.32;;;;;;;20.28;45.14;98784.97;5052106;28;20032;-86
2022/05/23 05:10:58;;;;;;;6.32;4.43;;;;;;;21.19;45.12;98937.59;5055244;28;20025;-85
2022/05/23 05:13:24;;;;;;;6.22;4.45;;;;;;;20.75;45.12;98867.31;5053783;28;20036;-85
2022/05/23 05:15:50;;;;;;;4.90;4.40;;;;;;;20.92;44.98;98884.06;5053750;28;20021;-85
2022/05/23 05:18:15;;;;;;;7.20;5.25;;;;;;;21.00;45.19;98901.56;5054750;28;20024;-85
2022/05/23 05:20:41;;;;;;;6.07;4.72;;;;;;;21.02;45.26;98916.31;5070558;28;20504;-86
2022/05/23 05:23:06;;;;;;;4.88;4.47;;;;;;;20.97;45.54;98894.03;5053700;28;20107;-86
2022/05/23 05:25:32;;;;;;;6.40;5.28;;;;;;;21.14;45.45;98941.06;5070209;28;20016;-86
2022/05/23 05:27:57;;;;;;;5.78;5.10;;;;;;;21.24;45.11;98934.97;5054874;28;20571;-85
2022/05/23 05:30:23;;;;;;;5.47;4.78;;;;;;;21.28;45.15;98930.69;5054853;28;20025;-85
2022/05/23 05:33:02;;;;;;;7.70;5.75;;;;;;;20.50;45.33;98828.56;5034554;28;20421;-85
2022/05/23 05:35:33;;;;;;;7.05;5.20;;;;;;;21.29;45.21;98926.94;5054287;28;20035;-86
2022/05/23 05:38:05;;;;;;;8.40;5.50;;;;;;;21.35;45.07;98928.56;5041762;28;20584;-85
2022/05/23 05:40:33;;;;;;;5.97;5.38;;;;;;;21.43;44.75;98933.44;5036201;28;20190;-87
2022/05/23 05:43:03;;;;;;;6.68;4.82;;;;;;;20.77;44.87;98823.06;5037239;28;20108;-86
2022/05/23 05:45:45;;;;;;;5.10;4.70;;;;;;;20.74;45.02;98825.47;5045188;28;20025;-85
2022/05/23 05:48:11;;;;;;;6.03;5.40;;;;;;;21.46;44.58;98918.66;5034691;28;20071;-85
2022/05/23 05:50:41;;;;;;;5.18;4.38;;;;;;;21.05;44.76;98847.91;5044439;28;20054;-85
2022/05/23 05:53:10;;;;;;;5.50;4.78;;;;;;;21.59;44.66;98922.78;5032758;28;20107;-85
2022/05/23 05:55:40;;;;;;;7.70;5.13;;;;;;;21.69;44.93;98922.78;5033096;28;20120;-85
2022/05/23 05:58:08;;;;;;;6.38;5.35;;;;;;;21.19;44.60;98846.31;5046133;28;20044;-85
2022/05/23 06:00:33;;;;;;;7.15;5.32;;;;;;;21.75;44.73;98933.28;5045956;28;20033;-85
2022/05/23 06:02:59;;;;;;;4.80;4.20;;;;;;;21.64;44.61;98888.66;5035263;28;20064;-85
2022/05/23 06:05:24;;;;;;;6.25;5.20;;;;;;;21.59;44.25;98887.84;5051403;28;20100;-85
2022/05/23 06:13:18;;;;;;;8.18;5.75;;;;;;;22.09;44.18;98922.06;5034631;28;20117;-86
2022/05/23 06:15:44;;;;;;;7.10;4.57;;;;;;;22.05;44.29;98894.09;5034369;28;20425;-86
2022/05/23 06:18:10;;;;;;;6.00;4.35;;;;;;;21.57;43.90;98815.59;5033135;28;20025;-86
2022/05/23 06:20:36;;;;;;;6.88;5.00;;;;;;;22.31;43.96;98903.81;5032843;28;20117;-86
2022/05/23 06:23:02;;;;;;;7.93;4.18;;;;;;;22.29;43.62;98907.81;5046093;28;20025;-87
2022/05/23 06:25:28;;;;;;;5.60;4.13;;;;;;;22.49;43.39;98902.44;5054016;28;20035;-86
2022/05/23 06:27:54;;;;;;;7.45;3.95;;;;;;;22.38;42.71;98896.28;5047660;28;20018;-86
2022/05/23 06:30:20;;;;;;;5.60;4.30;;;;;;;22.17;42.92;98857.00;5037813;28;20502;-87
2022/05/23 06:32:46;;;;;;;5.10;4.30;;;;;;;22.65;42.38;98916.69;5050593;28;20406;-87
2022/05/23 06:35:12;;;;;;;5.07;4.53;;;;;;;22.16;42.04;98856.19;5051125;28;20017;-87
2022/05/23 06:37:40;;;;;;;3.72;3.30;;;;;;;22.20;41.90;98854.56;5045744;28;20410;-84
2022/05/23 06:40:08;;;;;;;5.13;4.05;;;;;;;22.75;41.81;98922.03;5049249;28;20021;-85
2022/05/23 06:42:35;;;;;;;6.10;3.58;;;;;;;22.34;41.82;98840.59;5048448;28;20028;-86
2022/05/23 06:45:03;;;;;;;6.30;3.83;;;;;;;22.81;41.72;98919.09;5035516;28;20029;-86
2022/05/23 06:47:28;;;;;;;5.93;3.90;;;;;;;22.29;41.42;98865.59;5053629;28;20021;-87
2022/05/23 06:49:54;;;;;;;5.30;3.75;;;;;;;22.31;41.38;98851.91;5052904;28;20545;-86
2022/05/23 06:52:20;;;;;;;7.72;3.92;;;;;;;22.95;41.55;98918.53;5064609;28;20440;-86
2022/05/23 06:54:45;;;;;;;5.00;3.22;;;;;;;22.33;41.08;98845.19;5049875;28;20409;-86
2022/05/23 06:57:11;;;;;;;4.07;3.67;;;;;;;22.49;41.09;98841.38;5052272;28;20033;-86
2022/05/23 06:59:37;;;;;;;4.28;3.88;;;;;;;23.00;41.20;98929.28;5051542;28;20491;-85
2022/05/23 07:02:04;;;;;;;6.35;3.95;;;;;;;22.85;41.01;98883.56;5051939;28;20107;-85
2022/05/23 07:12:19;;;;;;;7.65;4.03;;;;;;;22.45;41.23;98809.91;5048245;28;20414;-85
2022/05/23 07:12:42;;;;;;;4.53;3.65;;;;;;;22.99;40.90;98868.44;5060761;28;20032;-84
2022/05/23 07:15:08;;;;;;;8.35;4.32;;;;;;;23.41;40.81;98909.22;5056397;28;20021;-85
2022/05/23 07:17:34;;;;;;;7.35;6.22;;;;;;;22.94;40.85;98836.16;5050521;28;20128;-86
2022/05/23 07:20:00;;;;;;;5.00;4.40;;;;;;;23.09;40.53;98833.41;5047764;28;20148;-86
2022/05/23 07:22:25;;;;;;;4.97;4.40;;;;;;;23.35;40.44;98874.47;5061233;28;20081;-86
2022/05/23 07:24:51;;;;;;;5.30;4.18;;;;;;;23.18;40.05;98826.38;5049103;28;20032;-86
2022/05/23 07:27:17;;;;;;;6.60;3.20;;;;;;;21.77;39.85;98646.31;5035050;28;20013;-86
2022/05/23 07:29:42;;;;;;;3.97;3.22;;;;;;;22.58;39.32;98746.66;5051366;28;20021;-86
2022/05/23 07:32:15;;;;;;;5.97;5.13;;;;;;;23.90;39.24;98918.41;5044287;28;20077;-86
2022/05/23 07:34:41;;;;;;;6.20;4.00;;;;;;;23.77;38.37;98893.66;5038430;28;20459;-85
2022/05/23 07:37:06;;;;;;;3.83;2.60;;;;;;;23.31;38.05;98820.38;5062839;28;20111;-84
2022/05/23 07:39:35;;;;;;;4.55;3.28;;;;;;;23.78;37.11;98886.38;5042391;28;20090;-86
2022/05/23 07:42:01;;;;;;;15.13;8.70;;;;;;;23.85;36.63;98889.59;5039600;28;20463;-86
2022/05/23 07:44:28;;;;;;;8.25;4.00;;;;;;;24.21;36.43;98918.97;5055399;28;20038;-85
2022/05/23 07:46:55;;;;;;;6.93;6.13;;;;;;;23.91;36.23;98866.91;5045669;28;20029;-86
2022/05/23 07:49:20;;;;;;;7.65;4.35;;;;;;;24.37;35.32;98915.09;5038538;28;20028;-85
2022/05/23 07:51:46;;;;;;;5.78;3.03;;;;;;;24.22;34.41;98913.31;5060253;28;20048;-86
2022/05/23 08:02:23;;;;;;;4.80;3.08;;;;;;;24.35;32.86;98890.28;5034441;28;20040;-84
2022/05/23 08:04:48;;;;;;;3.70;3.40;;;;;;;23.84;32.01;98830.56;5037805;28;20025;-85
2022/05/23 08:07:14;;;;;;;4.88;1.85;;;;;;;24.07;31.57;98811.75;5049739;28;20025;-85
2022/05/23 08:09:39;;;;;;;3.47;2.70;;;;;;;24.37;30.97;98867.34;5038937;28;20023;-85
2022/05/23 08:12:06;;;;;;;5.97;4.03;;;;;;;24.20;31.04;98821.06;5033573;28;20021;-84
2022/05/23 08:14:31;;;;;;;5.38;4.05;;;;;;;24.60;30.68;98875.78;5048854;28;20028;-85
2022/05/23 08:16:57;;;;;;;7.05;3.28;;;;;;;24.21;30.02;98805.69;5065979;28;20040;-85
2022/05/23 08:19:23;;;;;;;5.45;2.10;;;;;;;24.47;29.26;98844.84;5050942;28;20044;-85
2022/05/23 08:21:55;;;;;;;4.45;2.10;;;;;;;24.68;29.56;98880.53;5050972;28;20033;-84
2022/05/23 08:24:20;;;;;;;4.63;1.90;;;;;;;25.10;29.10;98912.22;5044896;28;20053;-85
2022/05/23 08:26:46;;;;;;;9.15;4.45;;;;;;;25.20;29.02;98914.00;5032089;28;20029;-84
2022/05/23 08:29:12;;;;;;;4.90;3.63;;;;;;;24.74;29.03;98825.41;5030577;28;20025;-85
2022/05/23 08:31:39;;;;;;;8.45;4.53;;;;;;;25.43;29.37;98904.28;5031419;28;20028;-85
2022/05/23 08:34:05;;;;;;;5.97;1.85;;;;;;;25.41;28.64;98901.88;5029979;28;20025;-85
2022/05/23 08:36:31;;;;;;;4.63;1.85;;;;;;;25.08;28.60;98844.19;5030708;28;20033;-86
2022/05/23 08:38:57;;;;;;;7.10;2.20;;;;;;;25.34;28.20;98877.09;5032962;28;20061;-86
2022/05/23 08:41:35;;;;;;;3.88;2.33;;;;;;;25.30;27.72;98833.66;5030785;28;20068;-86
2022/05/23 08:44:25;;;;;;;3.25;2.38;;;;;;;25.74;27.18;98897.38;5046254;28;20083;-85
2022/05/23 08:46:56;;;;;;;3.92;2.78;;;;;;;25.81;27.94;98895.09;5031477;28;20029;-86
2022/05/23 08:49:46;;;;;;;4.10;1.70;;;;;;;25.97;27.23;98896.47;5030049;28;20069;-85
2022/05/23 08:52:18;;;;;;;5.05;2.33;;;;;;;25.48;27.92;98801.50;5029419;28;20136;-86
2022/05/23 08:55:02;;;;;;;2.97;2.13;;;;;;;26.22;27.37;98899.91;5030558;28;20449;-85
2022/05/23 08:57:31;;;;;;;4.28;2.42;;;;;;;26.36;27.16;98889.13;5034032;28;20114;-83
2022/05/23 09:00:02;;;;;;;4.82;3.53;;;;;;;26.51;27.28;98892.38;5042019;28;20855;-84
2022/05/23 09:02:28;;;;;;;;;;;;;;;26.39;26.59;98889.34;5030027;28;20074;-85
2022/05/23 09:05:00;;;;;;;2.75;2.10;;;;;;;25.98;27.17;98797.19;5031044;28;20003;-86
2022/05/23 09:07:41;;;;;;;4.45;2.30;;;;;;;26.22;26.50;98784.34;5030853;28;20041;-85
2022/05/23 09:10:39;;;;;;;3.85;2.03;;;;;;;26.58;26.18;98810.75;5047461;28;20028;-86
2022/05/23 09:13:09;;;;;;;5.38;2.42;;;;;;;27.13;25.81;98867.66;5036912;28;20038;-83
2022/05/23 09:15:35;;;;;;;3.30;2.15;;;;;;;27.40;25.83;98872.25;5030452;28;20034;-86
2022/05/23 09:18:10;;;;;;;3.85;1.73;;;;;;;27.58;25.78;98874.03;5029679;28;20026;-86
2022/05/23 09:21:07;;;;;;;4.03;2.20;;;;;;;27.52;25.73;98840.81;5037253;28;20123;-85
2022/05/23 09:23:38;;;;;;;3.08;2.30;;;;;;;26.84;25.34;98710.84;5026076;28;20045;-85
2022/05/23 09:26:11;;;;;;;3.80;2.03;;;;;;;27.64;25.47;98802.31;5047106;28;20020;-86
2022/05/23 09:28:39;;;;;;;5.75;2.97;;;;;;;28.00;25.39;98828.56;5069884;28;20313;-85
2022/05/23 09:31:17;;;;;;;3.63;2.72;;;;;;;28.38;24.93;98840.66;5051157;28;20081;-85
2022/05/23 09:33:46;;;;;;;8.05;4.00;;;;;;;28.73;25.58;98857.09;5048013;28;20033;-85
2022/05/23 09:36:19;;;;;;;6.32;2.40;;;;;;;28.73;25.06;98857.91;5047857;28;20024;-85
2022/05/23 09:38:57;;;;;;;5.80;3.53;;;;;;;28.93;25.30;98870.16;5050394;28;20020;-85
2022/05/23 09:50:05;;;;;;;5.45;4.22;;;;;;;29.02;24.89;98797.63;5048664;28;20064;-84
2022/05/23 09:52:32;;;;;;;5.82;2.10;;;;;;;29.32;24.85;98816.84;5057151;28;20049;-84
2022/05/23 09:55:03;;;;;;;5.35;3.88;;;;;;;29.71;24.98;98849.34;5029593;28;20034;-85
2022/05/23 09:57:36;;;;;;;4.38;2.40;;;;;;;29.89;24.58;98842.00;5026739;28;20550;-83
2022/05/23 10:00:01;;;;;;;5.13;2.85;;;;;;;30.08;24.78;98847.13;5026480;28;20557;-85
2022/05/23 10:02:37;;;;;;;3.83;2.28;;;;;;;30.08;24.58;98849.03;5025185;28;20120;-85
2022/05/23 10:05:20;;;;;;;3.83;2.00;;;;;;;29.96;24.54;98836.06;5032294;28;20041;-85
2022/05/23 10:07:49;;;;;;;5.80;3.47;;;;;;;29.20;24.69;98683.44;5031346;28;20032;-86
2022/05/23 10:10:32;;;;;;;6.32;3.00;;;;;;;29.94;23.87;98764.81;5042488;28;20095;-85
2022/05/23 10:13:16;;;;;;;4.88;3.20;;;;;;;30.39;23.91;98835.16;5034592;28;20028;-83
2022/05/23 10:15:44;;;;;;;4.72;3.67;;;;;;;30.14;24.31;98766.84;5037785;28;20032;-85
2022/05/23 10:18:19;;;;;;;8.48;4.05;;;;;;;30.72;23.54;98847.13;5016865;28;20038;-84
2022/05/23 10:20:44;;;;;;;3.95;3.08;;;;;;;29.89;23.15;98719.50;5016678;28;20041;-84
2022/05/23 10:23:21;;;;;;;4.35;2.00;;;;;;;30.43;23.02;98830.69;5032281;28;20119;-85
2022/05/23 10:26:05;;;;;;;3.67;3.10;;;;;;;29.97;23.22;98775.06;5034552;28;20048;-85
2022/05/23 10:28:59;;;;;;;2.95;1.67;;;;;;;30.45;23.24;98823.78;5025323;28;20064;-85
2022/05/23 10:31:48;;;;;;;3.63;1.77;;;;;;;30.73;23.22;98816.00;5033150;28;20026;-85
2022/05/23 10:34:52;;;;;;;4.13;2.40;;;;;;;30.89;23.48;98813.53;5014974;28;20465;-85
2022/05/23 10:37:27;;;;;;;2.40;1.88;;;;;;;30.86;22.96;98779.53;5030838;28;20075;-85
2022/05/23 10:43:03;;;;;;;5.30;3.60;;;;;;;31.62;22.26;98808.53;5021833;28;20045;-85
2022/05/23 10:45:32;;;;;;;;;;;;;;;31.78;21.40;98816.94;5031746;28;20072;-86
2022/05/23 10:48:13;;;;;;;5.45;2.00;;;;;;;31.70;21.32;98823.28;5030705;28;20309;-83
2022/05/23 10:51:08;;;;;;;3.50;2.20;;;;;;;31.76;21.24;98813.75;5032590;28;20087;-85
2022/05/23 10:53:37;;;;;;;5.25;2.47;;;;;;;31.79;21.40;98813.06;5022252;28;20049;-84
2022/05/23 10:56:25;;;;;;;5.00;2.47;;;;;;;31.87;21.51;98802.06;5024924;28;20048;-85
2022/05/23 10:59:02;;;;;;;3.67;1.98;;;;;;;32.05;21.46;98796.44;5024946;28;20037;-83
2022/05/23 11:01:33;;;;;;;3.40;1.90;;;;;;;32.16;21.56;98797.59;5024804;28;20557;-83
2022/05/23 11:04:10;;;;;;;2.35;1.60;;;;;;;32.39;21.32;98787.06;5019041;28;20034;-85
2022/05/23 11:06:57;;;;;;;3.67;2.03;;;;;;;32.41;20.73;98785.59;5040428;28;20534;-83
2022/05/23 11:09:37;;;;;;;4.30;1.60;;;;;;;32.60;21.01;98785.03;5027608;28;20033;-84
2022/05/23 11:12:26;;;;;;;3.35;1.90;;;;;;;32.05;20.99;98728.19;5031396;28;20032;-83
2022/05/23 11:15:17;;;;;;;3.95;2.38;;;;;;;32.58;20.90;98778.31;5025830;28;20029;-84
2022/05/23 11:18:01;;;;;;;2.63;1.70;;;;;;;32.64;20.34;98775.00;5028335;28;20483;-84
2022/05/23 11:20:32;;;;;;;4.63;1.50;;;;;;;30.92;20.88;98567.50;5023408;28;20060;-85
2022/05/23 11:23:52;;;;;;;2.50;2.00;;;;;;;32.49;20.98;98773.75;5032810;28;20029;-85
2022/05/23 11:26:31;;;;;;;4.38;2.90;;;;;;;32.48;20.50;98722.97;5010201;28;20025;-85
2022/05/23 11:34:52;;;;;;;3.13;1.85;;;;;;;33.27;19.82;98748.03;5035630;28;20421;-83
2022/05/23 11:40:10;;;;;;;3.25;2.20;;;;;;;33.16;19.78;98749.66;5016427;28;20026;-85
2022/05/23 11:42:56;;;;;;;3.10;1.73;;;;;;;32.65;19.89;98746.53;5031459;28;20502;-83
2022/05/23 11:45:59;;;;;;;2.28;1.60;;;;;;;32.07;20.02;98701.31;5019968;28;20017;-85
2022/05/23 11:48:37;;;;;;;3.17;2.40;;;;;;;32.54;20.17;98739.94;5034620;28;20021;-85
2022/05/23 11:51:23;;;;;;;2.60;2.00;;;;;;;32.78;20.15;98726.28;5031744;28;20060;-84
2022/05/23 11:54:03;;;;;;;2.92;1.60;;;;;;;33.12;19.50;98724.94;5016938;28;20045;-84
2022/05/23 11:56:44;;;;;;;2.78;1.67;;;;;;;33.38;19.86;98716.31;5025886;28;20056;-85
2022/05/23 11:59:24;;;;;;;3.33;1.52;;;;;;;33.51;18.67;98716.28;5028305;28;20022;-85
2022/05/23 12:02:25;;;;;;;2.75;1.42;;;;;;;33.25;19.53;98711.22;5022411;28;20037;-84
2022/05/23 12:04:54;;;;;;;3.17;1.73;;;;;;;32.68;20.16;98718.50;5015927;28;20421;-83
2022/05/23 12:07:38;;;;;;;4.45;2.13;;;;;;;32.54;20.03;98720.81;5011137;28;20422;-84
2022/05/23 12:10:30;;;;;;;4.15;1.50;;;;;;;32.71;19.22;98706.91;5015467;28;20052;-84
2022/05/23 12:12:57;;;;;;;3.47;1.40;;;;;;;32.26;20.19;98703.53;5017226;28;20120;-82
2022/05/23 12:15:44;;;;;;;3.97;1.65;;;;;;;32.02;20.41;98709.75;5029063;28;20502;-83
2022/05/23 12:18:13;;;;;;;2.80;1.63;;;;;;;31.93;20.55;98698.88;5021246;28;20052;-85
2022/05/23 12:20:48;;;;;;;3.60;1.83;;;;;;;31.64;20.64;98704.50;5013877;28;20029;-84
2022/05/23 12:23:28;;;;;;;4.85;1.80;;;;;;;30.89;21.07;98626.22;5018138;28;20053;-85
2022/05/23 12:26:25;;;;;;;2.83;1.50;;;;;;;31.40;20.57;98651.47;5012212;28;20518;-84
2022/05/23 12:29:19;;;;;;;3.90;1.75;;;;;;;31.96;19.42;98668.22;5012742;28;20084;-84
2022/05/23 12:32:22;;;;;;;2.25;1.55;;;;;;;32.34;19.48;98706.13;5020116;28;20034;-85
2022/05/23 12:34:51;;;;;;;2.42;1.55;;;;;;;32.06;19.63;98677.88;5013829;28;20033;-84
2022/05/23 12:37:35;;;;;;;2.70;1.30;;;;;;;31.95;18.95;98638.47;5028116;28;20502;-85
2022/05/23 12:40:21;;;;;;;3.05;1.20;;;;;;;32.72;18.87;98692.09;5045277;28;20508;-85
2022/05/23 12:42:46;;;;;;;4.15;1.30;;;;;;;32.94;19.16;98684.56;5029372;28;20029;-84
2022/05/23 12:45:28;;;;;;;2.17;1.13;;;;;;;32.63;19.06;98696.06;5050595;28;20581;-83
2022/05/23 12:48:08;;;;;;;1.90;1.13;;;;;;;31.53;19.28;98622.25;5031322;28;20033;-84